createdAt,value
2017-08-15T03:41:58.927Z,22.2
2017-08-15T03:43:07.014Z,22.1
2017-08-15T03:44:15.102Z,22.1
2017-08-15T03:45:23.190Z,22.1
2017-08-15T03:46:31.276Z,22.2
2017-08-15T03:47:39.364Z,22.1
2017-08-15T03:48:47.454Z,22.1
2017-08-15T03:49:55.539Z,22.0
2017-08-15T03:51:03.627Z,22.1
2017-08-15T03:52:11.714Z,22.1
2017-08-15T03:53:19.802Z,22.1
2017-08-15T03:54:27.898Z,22.1
2017-08-15T03:55:36.148Z,22.1
2017-08-15T03:56:44.068Z,22.1
2017-08-15T03:57:52.151Z,22.1
2017-08-15T03:59:00.246Z,22.1
2017-08-15T04:00:08.331Z,22.1
2017-08-15T04:01:16.421Z,22.1
2017-08-15T04:02:24.509Z,22.1
2017-08-15T04:03:32.594Z,22.0
2017-08-15T04:04:40.692Z,22.1
2017-08-15T04:05:48.770Z,22.1
2017-08-15T04:06:56.857Z,22.1
2017-08-15T04:08:04.945Z,22.0
2017-08-15T04:09:13.033Z,22.0
2017-08-15T04:10:21.118Z,22.0
2017-08-15T04:11:29.207Z,22.1
2017-08-15T04:12:37.293Z,22.0
2017-08-15T04:13:45.380Z,22.1
2017-08-15T04:14:53.469Z,22.0
2017-08-15T04:16:01.557Z,22.1
2017-08-15T04:17:09.644Z,22.1
2017-08-15T04:18:17.737Z,22.1
2017-08-15T04:19:25.821Z,22.0
2017-08-15T04:20:33.910Z,22.0
2017-08-15T04:21:42.007Z,22.0
2017-08-15T04:22:50.084Z,22.0
2017-08-15T04:23:58.170Z,22.1
2017-08-15T04:25:06.268Z,22.0
2017-08-15T04:26:14.364Z,22.0
2017-08-15T04:27:22.439Z,22.0
2017-08-15T04:28:30.528Z,22.0
2017-08-15T04:29:39.662Z,22.0
2017-08-15T04:30:47.051Z,22.0
2017-08-15T04:31:55.104Z,22.0
2017-08-15T04:33:02.936Z,22.0
2017-08-15T04:34:11.090Z,22.0
2017-08-15T04:35:19.051Z,22.0
2017-08-15T04:36:27.139Z,22.1
2017-08-15T04:37:35.232Z,22.0
2017-08-15T04:38:43.318Z,22.0
2017-08-15T04:39:51.412Z,22.0
2017-08-15T04:40:59.500Z,22.0
2017-08-15T04:42:07.588Z,22.0
2017-08-15T04:43:15.690Z,22.0
2017-08-15T04:44:23.776Z,22.1
2017-08-15T04:45:31.991Z,21.9
2017-08-15T04:46:39.962Z,21.9
2017-08-15T04:47:48.650Z,21.9
2017-08-15T04:48:56.177Z,22.0
2017-08-15T04:50:04.224Z,21.9
2017-08-15T04:51:12.338Z,22.0
2017-08-15T04:52:20.402Z,22.0
2017-08-15T04:53:28.487Z,22.0
2017-08-15T04:54:36.576Z,21.9
2017-08-15T04:55:44.801Z,21.9
2017-08-15T04:56:52.750Z,22.0
2017-08-15T04:58:00.839Z,22.0
2017-08-15T04:59:08.925Z,22.0
2017-08-15T05:00:17.012Z,21.9
2017-08-15T05:01:25.100Z,21.9
2017-08-15T05:02:33.189Z,21.9
2017-08-15T05:03:41.276Z,21.9
2017-08-15T05:04:49.364Z,21.9
2017-08-15T05:05:57.450Z,22.0
2017-08-15T05:07:05.555Z,22.0
2017-08-15T05:08:13.623Z,22.0
2017-08-15T05:09:21.711Z,21.9
2017-08-15T05:10:29.801Z,21.9
2017-08-15T05:11:37.889Z,21.9
2017-08-15T05:12:45.977Z,21.9
2017-08-15T05:13:54.065Z,21.9
2017-08-15T05:15:02.152Z,21.9
2017-08-15T05:16:10.752Z,22.0
2017-08-15T05:17:18.327Z,21.9
2017-08-15T05:18:26.415Z,22.0
2017-08-15T05:19:34.499Z,22.0
2017-08-15T05:20:42.586Z,21.9
2017-08-15T05:21:50.674Z,21.9
2017-08-15T05:22:58.763Z,21.9
2017-08-15T05:24:06.851Z,21.9
2017-08-15T05:25:14.937Z,21.9
2017-08-15T05:26:23.023Z,21.9
2017-08-15T05:27:31.110Z,21.9
2017-08-15T05:28:39.199Z,21.9
2017-08-15T05:29:47.286Z,21.9
2017-08-15T05:30:55.372Z,21.9
2017-08-15T05:32:03.461Z,21.9
2017-08-15T05:33:11.548Z,21.9
2017-08-15T05:34:19.690Z,21.9
2017-08-15T05:35:27.725Z,21.9
2017-08-15T05:36:35.818Z,21.9
2017-08-15T05:37:43.890Z,21.9
2017-08-15T05:38:51.984Z,21.9
2017-08-15T05:40:00.072Z,21.9
2017-08-15T05:41:08.161Z,21.9
2017-08-15T05:42:16.247Z,21.9
2017-08-15T05:43:24.339Z,21.9
2017-08-15T05:44:32.427Z,21.9
2017-08-15T05:45:40.524Z,21.9
2017-08-15T05:46:48.596Z,21.9
2017-08-15T05:47:56.686Z,22.0
2017-08-15T05:49:04.775Z,21.9
2017-08-15T05:50:12.862Z,21.9
2017-08-15T05:51:20.960Z,21.9
2017-08-15T05:52:29.046Z,21.9
2017-08-15T05:53:37.138Z,21.9
2017-08-15T05:54:45.218Z,21.8
2017-08-15T05:55:53.304Z,21.9
2017-08-15T05:57:01.392Z,21.9
2017-08-15T05:58:09.483Z,21.8
2017-08-15T05:59:17.569Z,21.9
2017-08-15T06:00:25.656Z,21.9
2017-08-15T06:01:33.744Z,21.9
2017-08-15T06:02:41.842Z,21.9
2017-08-15T06:03:49.918Z,21.9
2017-08-15T06:04:58.005Z,21.9
2017-08-15T06:06:06.091Z,21.8
2017-08-15T06:07:14.179Z,21.8
2017-08-15T06:08:22.266Z,21.9
2017-08-15T06:09:30.353Z,21.9
2017-08-15T06:10:38.439Z,21.8
2017-08-15T06:11:46.537Z,21.9
2017-08-15T06:12:54.623Z,21.9
2017-08-15T06:14:02.710Z,21.9
2017-08-15T06:15:10.795Z,21.9
2017-08-15T06:16:18.886Z,21.9
2017-08-15T06:17:26.977Z,21.9
2017-08-15T06:18:35.060Z,21.9
2017-08-15T06:19:43.150Z,21.9
2017-08-15T06:20:51.238Z,21.9
2017-08-15T06:21:59.322Z,21.9
2017-08-15T06:23:07.474Z,21.9
2017-08-15T06:24:15.496Z,21.8
2017-08-15T06:25:23.583Z,21.9
2017-08-15T06:26:31.672Z,21.9
2017-08-15T06:27:39.756Z,21.9
2017-08-15T06:28:47.845Z,21.9
2017-08-15T06:29:55.934Z,21.9
2017-08-15T06:31:04.020Z,21.9
2017-08-15T06:32:12.112Z,21.8
2017-08-15T06:33:20.195Z,21.8
2017-08-15T06:34:28.280Z,21.8
2017-08-15T06:35:36.368Z,21.8
2017-08-15T06:36:44.458Z,21.9
2017-08-15T06:37:52.551Z,21.9
2017-08-15T06:39:00.631Z,21.9
2017-08-15T06:40:08.720Z,21.9
2017-08-15T06:41:16.809Z,21.8
2017-08-15T06:42:24.894Z,21.9
2017-08-15T06:43:32.979Z,21.8
2017-08-15T06:44:41.067Z,21.8
2017-08-15T06:45:49.157Z,21.8
2017-08-15T06:46:57.254Z,21.9
2017-08-15T06:48:05.331Z,21.8
2017-08-15T06:49:13.419Z,21.9
2017-08-15T06:50:21.507Z,21.8
2017-08-15T06:51:29.596Z,21.8
2017-08-15T06:52:37.681Z,21.9
2017-08-15T06:53:45.769Z,21.9
2017-08-15T06:54:53.856Z,21.9
2017-08-15T06:56:01.947Z,21.9
2017-08-15T06:57:10.031Z,21.8
2017-08-15T06:58:18.120Z,21.9
2017-08-15T06:59:26.206Z,21.8
2017-08-15T07:00:34.294Z,21.9
2017-08-15T07:01:42.379Z,21.8
2017-08-15T07:02:50.468Z,21.9
2017-08-15T07:03:58.554Z,21.9
2017-08-15T07:05:06.644Z,21.8
2017-08-15T07:06:14.733Z,21.9
2017-08-15T07:07:22.816Z,21.9
2017-08-15T07:08:30.906Z,21.8
2017-08-15T07:09:38.997Z,21.9
2017-08-15T07:10:47.079Z,21.9
2017-08-15T07:11:55.167Z,21.9
2017-08-15T07:13:03.253Z,21.9
2017-08-15T07:14:11.337Z,21.9
2017-08-15T07:15:19.427Z,21.9
2017-08-15T07:16:27.513Z,21.8
2017-08-15T07:17:35.608Z,21.9
2017-08-15T07:18:43.690Z,21.8
2017-08-15T07:19:51.779Z,21.8
2017-08-15T07:20:59.869Z,21.9
2017-08-15T07:22:07.953Z,21.9
2017-08-15T07:23:16.037Z,21.9
2017-08-15T07:24:24.125Z,21.9
2017-08-15T07:25:32.214Z,21.9
2017-08-15T07:26:40.302Z,21.9
2017-08-15T07:27:48.459Z,21.9
2017-08-15T07:28:56.483Z,21.9
2017-08-15T07:30:04.564Z,22.0
2017-08-15T07:31:12.652Z,21.9
2017-08-15T07:32:20.737Z,21.8
2017-08-15T07:33:28.862Z,21.9
2017-08-15T07:34:36.912Z,21.9
2017-08-15T07:35:45.000Z,21.9
2017-08-15T07:36:53.088Z,21.9
2017-08-15T07:38:01.175Z,21.9
2017-08-15T07:39:09.262Z,21.9
2017-08-15T07:40:17.351Z,21.9
2017-08-15T07:41:25.439Z,21.9
2017-08-15T07:42:33.528Z,21.9
2017-08-15T07:43:41.614Z,21.9
2017-08-15T07:44:49.756Z,21.9
2017-08-15T07:45:57.790Z,21.8
2017-08-15T07:47:05.878Z,21.9
2017-08-15T07:48:13.969Z,21.9
2017-08-15T07:49:22.054Z,21.9
2017-08-15T07:50:30.144Z,22.0
2017-08-15T07:51:38.233Z,21.9
2017-08-15T07:52:46.315Z,21.9
2017-08-15T07:53:54.403Z,21.9
2017-08-15T07:55:02.491Z,21.9
2017-08-15T07:56:10.578Z,21.9
2017-08-15T07:57:18.665Z,21.9
2017-08-15T07:58:26.752Z,21.8
2017-08-15T07:59:34.837Z,21.9
2017-08-15T08:00:42.930Z,22.0
2017-08-15T08:01:51.013Z,21.9
2017-08-15T08:02:59.103Z,21.9
2017-08-15T08:04:07.189Z,21.9
2017-08-15T08:05:15.278Z,21.9
2017-08-15T08:06:23.363Z,22.0
2017-08-15T08:07:31.454Z,21.9
2017-08-15T08:08:39.540Z,22.0
2017-08-15T08:09:47.636Z,22.0
2017-08-15T08:10:55.717Z,22.0
2017-08-15T08:12:03.812Z,22.0
2017-08-15T08:13:11.900Z,22.0
2017-08-15T08:14:19.989Z,22.0
2017-08-15T08:15:28.078Z,22.1
2017-08-15T08:16:36.163Z,22.0
2017-08-15T08:17:44.251Z,22.0
2017-08-15T08:18:52.340Z,22.1
2017-08-15T08:20:00.496Z,22.1
2017-08-15T08:21:08.513Z,22.1
2017-08-15T08:22:16.602Z,22.1
2017-08-15T08:23:24.689Z,22.0
2017-08-15T08:24:32.777Z,22.1
2017-08-15T08:25:40.869Z,22.1
2017-08-15T08:26:48.952Z,22.1
2017-08-15T08:27:57.041Z,22.2
2017-08-15T08:29:05.131Z,22.1
2017-08-15T08:30:13.220Z,22.1
2017-08-15T08:31:21.307Z,22.0
2017-08-15T08:32:29.394Z,22.1
2017-08-15T08:33:37.481Z,22.1
2017-08-15T08:34:45.572Z,22.1
2017-08-15T08:35:53.658Z,22.1
2017-08-15T08:37:01.746Z,22.1
2017-08-15T08:38:09.834Z,22.1
2017-08-15T08:39:17.921Z,22.2
2017-08-15T08:40:26.008Z,22.2
2017-08-15T08:41:34.096Z,22.2
2017-08-15T08:42:42.187Z,22.2
2017-08-15T08:43:50.279Z,22.1
2017-08-15T08:44:58.362Z,22.1
2017-08-15T08:46:06.450Z,22.2
2017-08-15T08:47:14.541Z,22.2
2017-08-15T08:48:22.630Z,22.2
2017-08-15T08:49:30.713Z,22.2
2017-08-15T08:50:38.800Z,22.2
2017-08-15T08:51:46.887Z,22.2
2017-08-15T08:52:54.975Z,22.2
2017-08-15T08:54:03.066Z,22.2
2017-08-15T08:55:11.153Z,22.2
2017-08-15T08:56:19.243Z,22.3
2017-08-15T08:57:27.331Z,22.3
2017-08-15T08:58:35.420Z,22.3
2017-08-15T08:59:43.512Z,22.3
2017-08-15T09:00:51.592Z,22.3
2017-08-15T09:01:59.682Z,22.3
2017-08-15T09:03:07.786Z,22.2
2017-08-15T09:04:15.860Z,22.3
2017-08-15T09:05:23.949Z,22.2
2017-08-15T09:06:32.036Z,22.3
2017-08-15T09:07:40.123Z,22.3
2017-08-15T09:08:48.212Z,22.3
2017-08-15T09:09:56.297Z,22.3
2017-08-15T09:11:04.386Z,22.3
2017-08-15T09:12:12.476Z,22.3
2017-08-15T09:13:20.568Z,22.4
2017-08-15T09:14:28.651Z,22.3
2017-08-15T09:15:36.750Z,22.4
2017-08-15T09:16:44.827Z,22.4
2017-08-15T09:17:52.915Z,22.4
2017-08-15T09:19:01.004Z,22.4
2017-08-15T09:20:09.091Z,22.4
2017-08-15T09:21:17.185Z,22.4
2017-08-15T09:22:25.267Z,22.4
2017-08-15T09:23:33.364Z,22.5
2017-08-15T09:24:41.445Z,22.4
2017-08-15T09:25:49.533Z,22.5
2017-08-15T09:26:57.621Z,22.5
2017-08-15T09:28:05.706Z,22.6
2017-08-15T09:29:13.806Z,22.4
2017-08-15T09:30:21.899Z,22.5
2017-08-15T09:31:29.983Z,22.5
2017-08-15T09:32:38.074Z,22.6
2017-08-15T09:33:46.160Z,22.6
2017-08-15T09:34:54.250Z,22.5
2017-08-15T09:36:02.340Z,22.5
2017-08-15T09:37:10.422Z,22.5
2017-08-15T09:38:18.519Z,22.5
2017-08-15T09:39:26.600Z,22.5
2017-08-15T09:40:34.691Z,22.5
2017-08-15T09:41:42.844Z,22.5
2017-08-15T09:42:50.867Z,22.5
2017-08-15T09:43:58.953Z,22.6
2017-08-15T09:45:07.166Z,22.5
2017-08-15T09:46:15.130Z,22.6
2017-08-15T09:47:23.216Z,22.6
2017-08-15T09:48:31.308Z,22.6
2017-08-15T09:49:39.393Z,22.6
2017-08-15T09:50:47.483Z,22.6
2017-08-15T09:51:55.569Z,22.6
2017-08-15T09:53:03.662Z,22.6
2017-08-15T09:54:11.751Z,22.6
2017-08-15T09:55:19.837Z,22.6
2017-08-15T09:56:27.924Z,22.6
2017-08-15T09:57:36.009Z,22.6
2017-08-15T09:58:44.099Z,22.6
2017-08-15T09:59:52.194Z,22.6
2017-08-15T10:01:00.276Z,22.7
2017-08-15T10:02:08.368Z,22.6
2017-08-15T10:03:16.455Z,22.6
2017-08-15T10:04:24.543Z,22.6
2017-08-15T10:05:32.630Z,22.7
2017-08-15T10:06:40.718Z,22.6
2017-08-15T10:07:48.806Z,22.6
2017-08-15T10:08:56.899Z,22.6
2017-08-15T10:10:04.983Z,22.6
2017-08-15T10:11:13.072Z,22.7
2017-08-15T10:12:21.158Z,22.7
2017-08-15T10:13:29.248Z,22.6
2017-08-15T10:14:37.337Z,22.6
2017-08-15T10:15:45.427Z,22.8
2017-08-15T10:16:53.515Z,22.8
2017-08-15T10:18:01.602Z,22.7
2017-08-15T10:19:09.690Z,22.7
2017-08-15T10:20:17.779Z,22.8
2017-08-15T10:21:25.866Z,22.8
2017-08-15T10:22:33.958Z,22.8
2017-08-15T10:23:42.044Z,22.8
2017-08-15T10:24:50.133Z,22.8
2017-08-15T10:25:58.222Z,22.9
2017-08-15T10:27:06.315Z,22.8
2017-08-15T10:28:14.397Z,22.7
2017-08-15T10:29:22.487Z,22.8
2017-08-15T10:30:30.576Z,22.7
2017-08-15T10:31:38.664Z,22.8
2017-08-15T10:32:46.754Z,22.8
2017-08-15T10:33:54.842Z,22.8
2017-08-15T10:35:02.931Z,22.8
2017-08-15T10:36:11.019Z,22.8
2017-08-15T10:37:19.116Z,22.9
2017-08-15T10:38:27.196Z,22.9
2017-08-15T10:39:35.285Z,22.9
2017-08-15T10:40:43.387Z,22.8
2017-08-15T10:41:51.473Z,22.9
2017-08-15T10:42:59.634Z,22.8
2017-08-15T10:44:07.659Z,22.9
2017-08-15T10:45:15.745Z,22.8
2017-08-15T10:46:23.832Z,22.9
2017-08-15T10:47:31.921Z,23.0
2017-08-15T10:48:40.010Z,23.0
2017-08-15T10:49:48.102Z,23.0
2017-08-15T10:50:56.191Z,22.9
2017-08-15T10:52:04.278Z,22.9
2017-08-15T10:53:12.365Z,23.0
2017-08-15T10:54:20.471Z,22.9
2017-08-15T10:55:28.542Z,22.9
2017-08-15T10:56:36.631Z,22.9
2017-08-15T10:57:44.720Z,23.0
2017-08-15T10:58:52.811Z,23.0
2017-08-15T11:00:00.930Z,23.0
2017-08-15T11:01:08.988Z,22.9
2017-08-15T11:02:17.075Z,23.0
2017-08-15T11:03:25.163Z,23.0
2017-08-15T11:04:33.251Z,23.0
2017-08-15T11:05:41.361Z,23.1
2017-08-15T11:06:49.431Z,23.1
2017-08-15T11:07:57.518Z,23.1
2017-08-15T11:09:05.616Z,23.0
2017-08-15T11:10:13.706Z,23.0
2017-08-15T11:11:21.793Z,23.1
2017-08-15T11:12:29.881Z,23.1
2017-08-15T11:13:37.969Z,23.1
2017-08-15T11:14:46.086Z,23.1
2017-08-15T11:15:54.163Z,23.1
2017-08-15T11:17:02.271Z,23.1
2017-08-15T11:18:10.341Z,23.2
2017-08-15T11:19:18.430Z,23.1
2017-08-15T11:20:26.520Z,23.1
2017-08-15T11:21:34.607Z,23.2
2017-08-15T11:22:42.696Z,23.1
2017-08-15T11:23:50.785Z,23.2
2017-08-15T11:24:58.874Z,23.1
2017-08-15T11:26:06.962Z,23.2
2017-08-15T11:27:15.053Z,23.2
2017-08-15T11:28:23.142Z,23.2
2017-08-15T11:29:31.232Z,23.2
2017-08-15T11:30:39.326Z,23.2
2017-08-15T11:31:47.504Z,23.2
2017-08-15T11:32:55.496Z,23.2
2017-08-15T11:34:03.586Z,23.3
2017-08-15T11:35:11.672Z,23.3
2017-08-15T11:36:19.762Z,23.3
2017-08-15T11:37:27.850Z,23.3
2017-08-15T11:38:35.940Z,23.3
2017-08-15T11:39:44.026Z,23.3
2017-08-15T11:40:52.126Z,23.3
2017-08-15T11:42:00.206Z,23.4
2017-08-15T11:43:08.296Z,23.3
2017-08-15T11:44:16.385Z,23.3
2017-08-15T11:45:24.473Z,23.3
2017-08-15T11:46:32.562Z,23.3
2017-08-15T11:47:40.650Z,23.3
2017-08-15T11:48:48.740Z,23.3
2017-08-15T11:49:56.827Z,23.4
2017-08-15T11:51:04.918Z,23.4
2017-08-15T11:52:13.004Z,23.4
2017-08-15T11:53:21.099Z,23.4
2017-08-15T11:54:29.186Z,23.4
2017-08-15T11:55:37.271Z,23.3
2017-08-15T11:56:45.362Z,23.4
2017-08-15T11:57:53.450Z,23.3
2017-08-15T11:59:01.540Z,23.4
2017-08-15T12:00:09.684Z,23.5
2017-08-15T12:01:17.720Z,23.4
2017-08-15T12:02:25.808Z,23.5
2017-08-15T12:03:33.895Z,23.4
2017-08-15T12:04:41.984Z,23.4
2017-08-15T12:05:50.080Z,23.6
2017-08-15T12:06:58.162Z,23.6
2017-08-15T12:08:06.247Z,23.5
2017-08-15T12:09:14.337Z,23.6
2017-08-15T12:10:22.429Z,23.6
2017-08-15T12:11:30.522Z,23.5
2017-08-15T12:12:38.609Z,23.6
2017-08-15T12:13:46.695Z,23.5
2017-08-15T12:14:54.786Z,23.5
2017-08-15T12:16:02.872Z,23.6
2017-08-15T12:17:10.984Z,23.6
2017-08-15T12:18:19.050Z,23.6
2017-08-15T12:19:27.139Z,23.6
2017-08-15T12:20:35.228Z,23.6
2017-08-15T12:21:43.317Z,23.7
2017-08-15T12:22:51.407Z,23.6
2017-08-15T12:23:59.495Z,23.6
2017-08-15T12:25:07.583Z,23.6
2017-08-15T12:26:16.161Z,23.6
2017-08-15T12:27:23.771Z,23.6
2017-08-15T12:28:31.850Z,23.7
2017-08-15T12:29:39.938Z,23.6
2017-08-15T12:30:48.033Z,23.7
2017-08-15T12:31:56.120Z,23.7
2017-08-15T12:33:04.211Z,23.7
2017-08-15T12:34:12.315Z,23.8
2017-08-15T12:35:20.396Z,23.7
2017-08-15T12:36:28.490Z,23.7
2017-08-15T12:37:36.590Z,23.7
2017-08-15T12:38:44.670Z,23.7
2017-08-15T12:39:52.757Z,23.7
2017-08-15T12:41:00.849Z,23.7
2017-08-15T12:42:08.937Z,23.7
2017-08-15T12:43:17.025Z,23.8
2017-08-15T12:44:25.116Z,23.8
2017-08-15T12:45:33.203Z,23.8
2017-08-15T12:46:41.299Z,23.8
2017-08-15T12:47:49.384Z,23.9
2017-08-15T12:48:57.475Z,23.8
2017-08-15T12:50:05.561Z,23.8
2017-08-15T12:51:13.660Z,23.8
2017-08-15T12:52:21.741Z,23.8
2017-08-15T12:53:29.831Z,23.8
2017-08-15T12:54:37.918Z,23.9
2017-08-15T12:55:46.006Z,23.9
2017-08-15T12:56:54.106Z,23.9
2017-08-15T12:58:02.199Z,23.9
2017-08-15T12:59:10.287Z,23.9
2017-08-15T13:00:18.380Z,23.9
2017-08-15T13:01:26.467Z,23.9
2017-08-15T13:02:34.555Z,23.9
2017-08-15T13:03:42.644Z,23.9
2017-08-15T13:04:50.734Z,23.9
2017-08-15T13:05:58.826Z,23.9
2017-08-15T13:07:06.913Z,23.9
2017-08-15T13:08:15.007Z,23.9
2017-08-15T13:09:23.098Z,23.9
2017-08-15T13:10:31.197Z,23.9
2017-08-15T13:11:39.275Z,23.9
2017-08-15T13:12:47.391Z,23.9
2017-08-15T13:13:55.457Z,23.9
2017-08-15T13:15:03.542Z,23.9
2017-08-15T13:16:11.640Z,23.9
2017-08-15T13:18:27.812Z,23.9
2017-08-15T13:19:35.899Z,23.9
2017-08-15T13:20:43.999Z,23.8
2017-08-15T13:21:52.088Z,24.0
2017-08-15T13:23:00.181Z,24.0
2017-08-15T13:24:08.269Z,23.9
2017-08-15T13:25:16.355Z,23.9
2017-08-15T13:26:24.455Z,23.9
2017-08-15T13:27:32.533Z,24.0
2017-08-15T13:28:40.622Z,24.0
2017-08-15T13:29:48.712Z,24.0
2017-08-15T13:30:56.803Z,24.0
